createdAt,value
2022-10-30T00:00:38.661Z,467.3
2022-10-30T00:01:40.842Z,467.8
2022-10-30T00:02:42.971Z,467.6
2022-10-30T00:03:44.581Z,467.4
2022-10-30T00:04:46.152Z,467.4
2022-10-30T00:05:47.737Z,467.7
2022-10-30T00:06:49.464Z,467.6
2022-10-30T00:07:51.327Z,467.4
2022-10-30T00:08:53.135Z,467.7
2022-10-30T00:09:54.698Z,467.6
2022-10-30T00:10:56.445Z,467.5
2022-10-30T00:11:58.000Z,467.5
2022-10-30T00:12:59.662Z,467.8
2022-10-30T00:14:01.580Z,468
2022-10-30T00:15:03.246Z,468
2022-10-30T00:16:04.865Z,468.4
2022-10-30T00:17:06.609Z,468.1
2022-10-30T00:18:08.192Z,468.4
2022-10-30T00:19:09.840Z,468.3
2022-10-30T00:20:11.553Z,468.2
2022-10-30T00:21:13.315Z,468.4
2022-10-30T00:22:14.961Z,468.4
2022-10-30T00:23:16.712Z,468.1
2022-10-30T00:24:18.455Z,467.7
2022-10-30T00:25:20.052Z,468.1
2022-10-30T00:26:21.642Z,467.7
2022-10-30T00:27:23.197Z,467.7
2022-10-30T00:28:24.850Z,468.1
2022-10-30T00:29:26.477Z,468.3
2022-10-30T00:30:28.018Z,468.5
2022-10-30T00:31:29.746Z,468.3
2022-10-30T00:32:31.332Z,468.7
2022-10-30T00:33:32.981Z,468.5
2022-10-30T00:34:34.523Z,468.6
2022-10-30T00:35:36.606Z,468.7
2022-10-30T00:36:38.359Z,468.5
2022-10-30T00:37:40.016Z,468.6
2022-10-30T00:38:41.914Z,468.2
2022-10-30T00:39:43.641Z,468.3
2022-10-30T00:40:45.193Z,468.2
2022-10-30T00:41:46.831Z,468.2
2022-10-30T00:42:48.669Z,468.3
2022-10-30T00:43:50.354Z,468.4
2022-10-30T00:44:52.010Z,468.7
2022-10-30T00:45:53.563Z,469.3
2022-10-30T00:46:55.102Z,468.9
2022-10-30T00:47:58.527Z,469.1
2022-10-30T00:49:00.368Z,469
2022-10-30T00:50:05.167Z,469
2022-10-30T00:51:06.753Z,468.8
2022-10-30T00:52:08.384Z,469
2022-10-30T00:53:10.243Z,468.9
2022-10-30T00:54:12.211Z,469
2022-10-30T00:55:13.930Z,468.8
2022-10-30T00:56:15.598Z,468.9
2022-10-30T00:57:17.141Z,469
2022-10-30T00:58:18.975Z,469.2
2022-10-30T00:59:20.786Z,468.9
2022-10-30T01:00:22.568Z,468.7
2022-10-30T01:01:24.732Z,468.9
2022-10-30T01:02:27.404Z,469.2
2022-10-30T01:03:29.262Z,469.4
2022-10-30T01:04:31.080Z,469.3
2022-10-30T01:05:32.889Z,469.2
2022-10-30T01:06:34.436Z,469.3
2022-10-30T01:07:35.975Z,469.4
2022-10-30T01:08:38.195Z,469.4
2022-10-30T01:09:40.069Z,469.5
2022-10-30T01:10:41.802Z,469.6
2022-10-30T01:11:43.484Z,469.6
2022-10-30T01:12:45.018Z,469.6
2022-10-30T01:13:46.590Z,469.7
2022-10-30T01:14:48.195Z,469.6
2022-10-30T01:15:49.847Z,469.6
2022-10-30T01:16:51.547Z,469.9
2022-10-30T01:17:53.091Z,470
2022-10-30T01:18:54.879Z,470.3
2022-10-30T01:19:56.713Z,470.4
2022-10-30T01:20:58.337Z,470.6
2022-10-30T01:21:59.878Z,470.4
2022-10-30T01:23:02.463Z,470.9
2022-10-30T01:24:04.238Z,471.2
2022-10-30T01:25:05.968Z,471.3
2022-10-30T01:26:07.814Z,471.6
2022-10-30T01:27:09.358Z,471.7
2022-10-30T01:28:10.919Z,472
2022-10-30T01:29:12.576Z,472.3
2022-10-30T01:30:14.294Z,472
2022-10-30T01:31:15.954Z,472
2022-10-30T01:32:17.771Z,472.2
2022-10-30T01:33:19.513Z,472.3
2022-10-30T01:34:21.298Z,472.1
2022-10-30T01:35:22.876Z,472.1
2022-10-30T01:36:24.496Z,471.7
2022-10-30T01:37:26.059Z,471.6
2022-10-30T01:38:27.611Z,471.9
2022-10-30T01:39:29.253Z,471.6
2022-10-30T01:40:31.057Z,471.8
2022-10-30T01:41:32.880Z,471.8
2022-10-30T01:42:34.625Z,471.8
2022-10-30T01:43:36.291Z,472
2022-10-30T01:44:38.025Z,472
2022-10-30T01:45:39.706Z,471.7
2022-10-30T01:46:41.349Z,472.3
2022-10-30T01:47:42.874Z,472.3
2022-10-30T01:48:44.505Z,472.2
2022-10-30T01:49:46.136Z,472.1
2022-10-30T01:50:47.680Z,472
2022-10-30T01:51:49.265Z,472.3
2022-10-30T01:52:50.964Z,472.3
2022-10-30T01:53:52.551Z,472.6
2022-10-30T01:54:54.172Z,472.5
2022-10-30T01:55:55.840Z,472.3
2022-10-30T01:56:57.660Z,472.4
2022-10-30T01:57:59.314Z,473
2022-10-30T01:59:01.053Z,472.7
2022-10-30T02:00:02.615Z,472.9
2022-10-30T02:01:04.683Z,473
2022-10-30T02:02:10.317Z,472.9
2022-10-30T02:03:12.073Z,473.2
2022-10-30T02:04:13.787Z,473
2022-10-30T02:05:15.333Z,473.1
2022-10-30T02:06:16.981Z,473.1
2022-10-30T02:07:18.861Z,473.4
2022-10-30T02:08:20.487Z,473.3
2022-10-30T02:09:22.027Z,473.8
2022-10-30T02:10:23.569Z,473.6
2022-10-30T02:11:25.426Z,473.4
2022-10-30T02:12:27.176Z,473.5
2022-10-30T02:13:28.985Z,473.2
2022-10-30T02:14:30.742Z,473.8
2022-10-30T02:15:32.381Z,473.8
2022-10-30T02:16:34.056Z,473.8
2022-10-30T02:17:35.717Z,473.8
2022-10-30T02:18:37.666Z,473.5
2022-10-30T02:19:39.249Z,473.7
2022-10-30T02:20:40.951Z,473.8
2022-10-30T02:21:42.680Z,473.6
2022-10-30T02:22:44.775Z,473.8
2022-10-30T02:23:46.456Z,473.6
2022-10-30T02:24:48.240Z,473.7
2022-10-30T02:25:49.907Z,473.6
2022-10-30T02:26:51.637Z,473.1
2022-10-30T02:27:53.579Z,473.3
2022-10-30T02:28:55.347Z,473.3
2022-10-30T02:29:56.964Z,473
2022-10-30T02:30:58.558Z,473.1
2022-10-30T02:32:00.255Z,473.2
2022-10-30T02:33:03.216Z,473.2
2022-10-30T02:34:05.081Z,473.3
2022-10-30T02:35:06.827Z,473.2
2022-10-30T02:36:08.407Z,473.1
2022-10-30T02:37:10.026Z,473.3
2022-10-30T02:38:11.636Z,473.1
2022-10-30T02:39:13.394Z,473
2022-10-30T02:40:14.986Z,473
2022-10-30T02:41:16.533Z,472.8
2022-10-30T02:42:18.242Z,473.1
2022-10-30T02:43:20.003Z,473.1
2022-10-30T02:44:21.742Z,473.2
2022-10-30T02:45:23.473Z,473.3
2022-10-30T02:46:25.194Z,473.4
2022-10-30T02:47:26.892Z,473.4
2022-10-30T02:48:28.456Z,473.6
2022-10-30T02:49:30.105Z,473.1
2022-10-30T02:50:31.696Z,473.3
2022-10-30T02:51:33.356Z,473.1
2022-10-30T02:52:35.031Z,473
2022-10-30T02:53:36.652Z,473.1
2022-10-30T02:54:38.323Z,472.9
2022-10-30T02:55:39.831Z,472.6
2022-10-30T02:56:41.503Z,472.6
2022-10-30T02:57:43.177Z,472.6
2022-10-30T02:58:44.904Z,472.5
2022-10-30T02:59:46.558Z,472.6
2022-10-30T03:00:48.673Z,472.6
2022-10-30T03:01:51.012Z,472.5
2022-10-30T03:03:55.324Z,472.8
2022-10-30T03:04:57.198Z,472.7
2022-10-30T03:05:59.040Z,472.5
2022-10-30T03:07:01.736Z,472.4
2022-10-30T03:08:03.469Z,472.1
2022-10-30T03:09:05.057Z,472.5
2022-10-30T03:10:06.852Z,472.2
2022-10-30T03:11:08.606Z,472.2
2022-10-30T03:12:10.293Z,472
2022-10-30T03:13:11.996Z,471.9
2022-10-30T03:14:13.946Z,471.9
2022-10-30T03:15:15.488Z,472
2022-10-30T03:16:17.246Z,472
2022-10-30T03:17:18.863Z,472.2
2022-10-30T03:18:20.450Z,471.4
2022-10-30T03:19:22.118Z,471.5
2022-10-30T03:20:23.705Z,471.7
2022-10-30T03:21:25.290Z,471.2
2022-10-30T03:22:26.832Z,471.1
2022-10-30T03:23:28.651Z,471.4
2022-10-30T03:24:30.433Z,471.2
2022-10-30T03:25:32.248Z,471.4
2022-10-30T03:26:33.895Z,471.1
2022-10-30T03:27:35.763Z,471.2
2022-10-30T03:28:37.523Z,471.4
2022-10-30T03:29:39.366Z,471.2
2022-10-30T03:30:41.004Z,471.3
2022-10-30T03:31:42.608Z,471.7
2022-10-30T03:32:44.489Z,471.7
2022-10-30T03:33:46.232Z,471.9
2022-10-30T03:34:48.088Z,471.8
2022-10-30T03:35:49.707Z,472
2022-10-30T03:36:51.251Z,472.5
2022-10-30T03:37:52.801Z,472.8
2022-10-30T03:38:54.345Z,472.6
2022-10-30T03:39:55.981Z,472.7
2022-10-30T03:40:57.548Z,473.1
2022-10-30T03:41:59.088Z,473.1
2022-10-30T03:43:01.751Z,472.7
2022-10-30T03:44:03.428Z,472.8
2022-10-30T03:45:05.280Z,472.8
2022-10-30T03:46:06.819Z,472.2
2022-10-30T03:47:08.876Z,472.4
2022-10-30T03:48:10.566Z,472.7
2022-10-30T03:49:12.232Z,472.6
2022-10-30T03:50:14.002Z,472.6
2022-10-30T03:51:15.539Z,472.7
2022-10-30T03:52:17.176Z,472.5
2022-10-30T03:53:18.923Z,472.8
2022-10-30T03:54:20.566Z,472.9
2022-10-30T03:55:22.309Z,472.9
2022-10-30T03:56:23.850Z,472.9
2022-10-30T03:57:25.438Z,472.7
2022-10-30T03:58:27.137Z,473.3
2022-10-30T03:59:28.713Z,473.1
2022-10-30T04:00:30.570Z,473.1
2022-10-30T04:01:33.121Z,473.1
2022-10-30T04:02:34.893Z,473.1
2022-10-30T04:03:36.473Z,472.9
2022-10-30T04:04:38.159Z,473.4
2022-10-30T04:05:39.894Z,472.9
2022-10-30T04:06:41.518Z,473.1
2022-10-30T04:07:43.314Z,473.2
2022-10-30T04:08:45.033Z,473.6
2022-10-30T04:09:46.573Z,473.7
2022-10-30T04:10:48.604Z,473.9
2022-10-30T04:11:50.307Z,474.1
2022-10-30T04:12:52.023Z,474
2022-10-30T04:13:53.603Z,474.1
2022-10-30T04:14:55.209Z,473.8
2022-10-30T04:15:58.929Z,473.6
2022-10-30T04:17:01.126Z,473.5
2022-10-30T04:18:03.629Z,473.8
2022-10-30T04:19:05.150Z,473.8
2022-10-30T04:20:06.934Z,474
2022-10-30T04:21:08.561Z,474.4
2022-10-30T04:22:10.102Z,473.9
2022-10-30T04:23:11.786Z,473.8
2022-10-30T04:24:13.443Z,474.3
2022-10-30T04:25:15.163Z,474.4
2022-10-30T04:26:16.754Z,474.2
2022-10-30T04:27:18.301Z,474.1
2022-10-30T04:28:20.202Z,474.2
2022-10-30T04:29:21.795Z,473.9
2022-10-30T04:30:23.392Z,474
2022-10-30T04:31:25.238Z,473.9
2022-10-30T04:32:26.804Z,473.3
2022-10-30T04:33:28.449Z,473.5
2022-10-30T04:34:30.177Z,473.7
2022-10-30T04:35:31.818Z,473.3
2022-10-30T04:36:33.424Z,473.4
2022-10-30T04:37:35.027Z,473.4
2022-10-30T04:38:36.727Z,473.4
2022-10-30T04:39:46.903Z,473.4
2022-10-30T04:40:48.547Z,473.7
2022-10-30T04:41:50.067Z,473.5
2022-10-30T04:42:51.651Z,473.4
2022-10-30T04:43:53.259Z,473.1
2022-10-30T04:44:54.839Z,472.9
2022-10-30T04:45:56.579Z,472.6
2022-10-30T04:46:58.318Z,473
2022-10-30T04:48:01.884Z,472.6
2022-10-30T04:49:04.055Z,472.7
2022-10-30T04:50:05.827Z,472.7
2022-10-30T04:51:07.553Z,472.8
2022-10-30T04:52:09.182Z,472.8
2022-10-30T04:53:10.873Z,472.6
2022-10-30T04:54:12.409Z,472.1
2022-10-30T04:55:13.989Z,472.6
2022-10-30T04:56:15.662Z,472.1
2022-10-30T04:57:17.244Z,471.8
2022-10-30T04:58:18.855Z,471.8
2022-10-30T04:59:20.363Z,471.7
2022-10-30T05:00:22.158Z,471.6
2022-10-30T05:01:24.562Z,471.5
2022-10-30T05:02:27.401Z,471.6
2022-10-30T05:03:29.162Z,471.4
2022-10-30T05:04:30.866Z,471.2
2022-10-30T05:05:32.716Z,471.1
2022-10-30T05:06:34.366Z,471.3
2022-10-30T05:07:35.886Z,471.6
2022-10-30T05:08:37.692Z,471.4
2022-10-30T05:09:39.226Z,471.4
2022-10-30T05:10:40.792Z,471.4
2022-10-30T05:11:42.371Z,471.2
2022-10-30T05:12:44.238Z,471.3
2022-10-30T05:13:45.984Z,471.2
2022-10-30T05:14:47.582Z,471.3
2022-10-30T05:15:49.117Z,470.8
2022-10-30T05:16:51.048Z,470.9
2022-10-30T05:17:52.793Z,471.1
2022-10-30T05:18:54.403Z,471
2022-10-30T05:19:55.994Z,470.9
2022-10-30T05:20:57.651Z,470.8
2022-10-30T05:21:59.255Z,471
2022-10-30T05:23:00.804Z,470.9
2022-10-30T05:24:02.483Z,470.8
2022-10-30T05:25:04.177Z,470.8
2022-10-30T05:26:05.727Z,470.9
2022-10-30T05:27:07.511Z,470.7
2022-10-30T05:28:09.054Z,470.7
2022-10-30T05:29:10.684Z,471
2022-10-30T05:30:12.324Z,470.9
2022-10-30T05:31:14.254Z,470.9
2022-10-30T05:32:16.240Z,470.8
2022-10-30T05:33:17.976Z,470.9
2022-10-30T05:34:19.722Z,470.6
2022-10-30T05:35:21.730Z,470.4
2022-10-30T05:36:23.627Z,470.3
2022-10-30T05:37:25.253Z,470.4
2022-10-30T05:38:26.796Z,470.4
2022-10-30T05:39:28.585Z,470.1
2022-10-30T05:40:30.399Z,470.1
2022-10-30T05:41:31.985Z,470.5
2022-10-30T05:42:33.749Z,470.9
2022-10-30T05:43:35.347Z,470.7
2022-10-30T05:45:03.054Z,470.4
2022-10-30T05:46:04.600Z,470.6
2022-10-30T05:47:06.278Z,470.2
2022-10-30T05:48:08.148Z,470.4
2022-10-30T05:49:09.891Z,470.2
2022-10-30T05:50:11.460Z,470.3
2022-10-30T05:51:13.048Z,470.3
2022-10-30T05:52:14.595Z,470.4
2022-10-30T05:53:16.353Z,470.6
2022-10-30T05:54:17.891Z,470.8
2022-10-30T05:55:19.433Z,470.9
2022-10-30T05:56:20.978Z,470.6
2022-10-30T05:57:22.606Z,470.5
2022-10-30T05:58:24.370Z,470.6
2022-10-30T05:59:26.017Z,470.6
2022-10-30T06:00:27.660Z,470.7
2022-10-30T06:01:30.046Z,470.5
2022-10-30T06:02:32.104Z,471
2022-10-30T06:03:33.953Z,471.2
2022-10-30T06:04:35.806Z,471.1
2022-10-30T06:05:37.405Z,471.4
2022-10-30T06:06:39.039Z,471.7
2022-10-30T06:07:40.826Z,471.8
2022-10-30T06:08:42.838Z,471.4
2022-10-30T06:09:44.434Z,471.8
2022-10-30T06:10:46.002Z,471.6
2022-10-30T06:11:47.531Z,471.7
2022-10-30T06:12:49.182Z,471.9
2022-10-30T06:13:50.896Z,471.7
2022-10-30T06:14:52.436Z,471.5
2022-10-30T06:15:53.978Z,471.3
2022-10-30T06:16:55.521Z,471.2
2022-10-30T06:17:59.312Z,470.9
2022-10-30T06:19:01.188Z,471.1
2022-10-30T06:20:02.929Z,471.5
2022-10-30T06:21:04.471Z,471.2
2022-10-30T06:22:06.147Z,471.4
2022-10-30T06:23:07.798Z,471.2
2022-10-30T06:24:09.426Z,471.7
2022-10-30T06:25:11.145Z,471.5
2022-10-30T06:26:12.806Z,471.6
2022-10-30T06:27:14.474Z,471.8
2022-10-30T06:28:16.016Z,471.6
2022-10-30T06:29:17.697Z,471.5
2022-10-30T06:30:19.397Z,471.6
2022-10-30T06:32:23.067Z,471.3
2022-10-30T06:33:24.743Z,471
2022-10-30T06:34:29.013Z,470.6
2022-10-30T06:35:30.872Z,470.9
2022-10-30T06:36:33.221Z,471.1
2022-10-30T06:37:35.000Z,471.1
2022-10-30T06:38:36.713Z,471
2022-10-30T06:39:38.255Z,471.1
2022-10-30T06:40:39.797Z,470.9
2022-10-30T06:41:41.343Z,471.1
2022-10-30T06:42:43.098Z,471
2022-10-30T06:43:44.779Z,471
2022-10-30T06:44:46.297Z,470.9
2022-10-30T06:45:47.966Z,471
2022-10-30T06:46:49.620Z,471.3
2022-10-30T06:47:51.324Z,471.1
2022-10-30T06:48:52.883Z,471.3
2022-10-30T06:49:54.540Z,471.3
2022-10-30T06:50:56.283Z,471.6
2022-10-30T06:51:58.069Z,471.4
2022-10-30T06:52:59.880Z,471.1
2022-10-30T06:54:01.511Z,471.2
2022-10-30T06:55:03.189Z,471
2022-10-30T06:56:04.743Z,470.7
2022-10-30T06:57:06.279Z,470.4
2022-10-30T06:58:07.917Z,470.6
2022-10-30T06:59:09.630Z,470
2022-10-30T07:00:11.247Z,469.9
2022-10-30T07:01:13.670Z,469.6
2022-10-30T07:02:15.969Z,469.4
2022-10-30T07:03:20.406Z,469.9
2022-10-30T07:04:22.157Z,469.3
2022-10-30T07:05:23.823Z,469.5
2022-10-30T07:06:25.658Z,469.6
2022-10-30T07:07:27.401Z,469.9
2022-10-30T07:08:29.144Z,469.7
2022-10-30T07:09:30.840Z,470.1
2022-10-30T07:10:32.368Z,470
2022-10-30T07:11:33.903Z,469.7
2022-10-30T07:12:35.413Z,469.9
2022-10-30T07:13:37.075Z,470
2022-10-30T07:14:38.740Z,470
2022-10-30T07:15:40.327Z,470.2
2022-10-30T07:16:41.989Z,470.2
2022-10-30T07:17:43.610Z,470.4
2022-10-30T07:18:45.407Z,470.2
2022-10-30T07:19:47.041Z,470.1
2022-10-30T07:20:48.606Z,470.4
2022-10-30T07:21:50.324Z,470.8
2022-10-30T07:22:51.911Z,470.7
2022-10-30T07:23:53.555Z,470.8
2022-10-30T07:24:55.207Z,471
2022-10-30T07:26:04.903Z,470.8
2022-10-30T07:27:06.658Z,471.1
2022-10-30T07:28:08.304Z,471.4
2022-10-30T07:29:09.973Z,471.3
2022-10-30T07:30:11.915Z,471.2
2022-10-30T07:31:24.195Z,471.1
2022-10-30T07:32:36.883Z,470.9
2022-10-30T07:33:38.546Z,471.1
2022-10-30T07:34:40.312Z,471.5
2022-10-30T07:35:41.931Z,471.3
2022-10-30T07:36:43.587Z,471.6
2022-10-30T07:37:45.252Z,471.8
2022-10-30T07:38:46.956Z,472.2
2022-10-30T07:39:48.601Z,471.6
2022-10-30T07:40:50.354Z,471.7
2022-10-30T07:41:52.100Z,471.7
2022-10-30T07:42:53.684Z,471.4
2022-10-30T07:43:55.246Z,471.5
2022-10-30T07:44:57.072Z,471.1
2022-10-30T07:45:58.721Z,470.9
2022-10-30T07:47:00.361Z,471.5
2022-10-30T07:48:04.017Z,471.2
2022-10-30T07:49:05.701Z,471.3
2022-10-30T07:50:07.427Z,471.4
2022-10-30T07:51:09.161Z,471.5
2022-10-30T07:52:18.208Z,471.4
2022-10-30T07:53:19.946Z,471.9
2022-10-30T07:54:21.771Z,472
2022-10-30T07:55:23.386Z,472.2
2022-10-30T07:56:24.988Z,472.7
2022-10-30T07:57:26.914Z,473
2022-10-30T07:58:28.673Z,473
2022-10-30T07:59:30.331Z,473.2
2022-10-30T08:00:32.022Z,473.7
2022-10-30T08:01:34.537Z,473.7
2022-10-30T08:02:36.952Z,473.7
2022-10-30T08:03:38.748Z,473.9
2022-10-30T08:04:40.317Z,473.8
2022-10-30T08:05:42.045Z,474.3
2022-10-30T08:06:43.685Z,474
2022-10-30T08:07:45.334Z,474.7
2022-10-30T08:08:49.939Z,474.5
2022-10-30T08:09:51.502Z,474.2
2022-10-30T08:10:53.230Z,474.1
2022-10-30T08:11:54.824Z,474.6
2022-10-30T08:12:56.612Z,474.2
2022-10-30T08:13:58.237Z,474.4
2022-10-30T08:14:59.803Z,474.6
2022-10-30T08:16:01.576Z,474.9
2022-10-30T08:17:03.229Z,475
2022-10-30T08:18:04.903Z,475.1
2022-10-30T08:19:06.459Z,475.2
2022-10-30T08:20:08.124Z,475.4
2022-10-30T08:21:09.768Z,475.8
2022-10-30T08:22:11.539Z,476
2022-10-30T08:23:13.289Z,475.9
2022-10-30T08:24:15.029Z,475.9
2022-10-30T08:25:16.703Z,475.8
2022-10-30T08:26:18.352Z,476
2022-10-30T08:27:20.051Z,476.1
2022-10-30T08:28:21.631Z,475.8
2022-10-30T08:29:23.369Z,476
2022-10-30T08:30:25.062Z,475.9
2022-10-30T08:31:26.956Z,476.2
2022-10-30T08:32:28.614Z,476.3
2022-10-30T08:33:30.352Z,476.1
2022-10-30T08:34:32.077Z,476
2022-10-30T08:35:33.950Z,475.9
2022-10-30T08:36:35.547Z,475.8
2022-10-30T08:37:37.121Z,475.9
2022-10-30T08:38:38.887Z,476.1
2022-10-30T08:39:40.632Z,475.6
2022-10-30T08:40:42.361Z,476
2022-10-30T08:41:44.106Z,476.2
2022-10-30T08:42:45.798Z,476.2
2022-10-30T08:43:47.328Z,476
2022-10-30T08:44:48.941Z,476.2
2022-10-30T08:45:50.635Z,476.3
2022-10-30T08:46:52.262Z,476.1
2022-10-30T08:47:53.894Z,476.3
2022-10-30T08:48:55.769Z,476.2
2022-10-30T08:49:57.405Z,475.7
2022-10-30T08:50:59.023Z,475.9
2022-10-30T08:52:00.741Z,476.3
2022-10-30T08:53:04.386Z,476
2022-10-30T08:54:06.328Z,476
2022-10-30T08:55:08.158Z,476.4
2022-10-30T08:56:09.799Z,476.6
2022-10-30T08:57:11.354Z,476.5
2022-10-30T08:58:13.009Z,476.7
2022-10-30T08:59:21.805Z,477.2
2022-10-30T09:00:23.877Z,477.6
2022-10-30T09:01:26.268Z,477.5
2022-10-30T09:02:28.685Z,477.7
2022-10-30T09:03:30.467Z,477.5
2022-10-30T09:04:32.897Z,477.5
2022-10-30T09:05:34.775Z,477.6
2022-10-30T09:06:36.289Z,477.9
2022-10-30T09:07:37.812Z,477.9
2022-10-30T09:08:39.493Z,478
2022-10-30T09:09:41.145Z,478.3
2022-10-30T09:10:42.906Z,478.3
2022-10-30T09:11:44.617Z,478.6
2022-10-30T09:12:46.164Z,478.8
2022-10-30T09:13:48.013Z,478.5
2022-10-30T09:14:49.639Z,478.3
2022-10-30T09:15:51.276Z,478.4
2022-10-30T09:16:55.856Z,478.2
2022-10-30T09:17:59.563Z,478.7
2022-10-30T09:19:01.490Z,478.8
2022-10-30T09:20:03.224Z,478.5
2022-10-30T09:21:05.998Z,478.8
2022-10-30T09:22:07.646Z,479.1
2022-10-30T09:23:09.369Z,478.7
2022-10-30T09:24:11.060Z,478.8
2022-10-30T09:25:12.726Z,479
2022-10-30T09:26:21.267Z,479.2
2022-10-30T09:27:22.959Z,479.2
2022-10-30T09:28:24.560Z,479.1
2022-10-30T09:29:26.247Z,479.3
2022-10-30T09:30:27.810Z,479.4
2022-10-30T09:31:29.461Z,479.5
2022-10-30T09:32:31.000Z,479.4
2022-10-30T09:33:32.538Z,479.5
2022-10-30T09:34:34.223Z,479.5
2022-10-30T09:35:35.963Z,479.6
2022-10-30T09:36:37.616Z,479.8
2022-10-30T09:37:39.364Z,480
2022-10-30T09:38:40.908Z,479.9
2022-10-30T09:39:42.529Z,480
2022-10-30T09:40:44.119Z,480.4
2022-10-30T09:41:51.600Z,480.3
2022-10-30T09:42:53.549Z,480.5
2022-10-30T09:43:55.211Z,480.8
2022-10-30T09:45:30.816Z,480.7
2022-10-30T09:46:33.180Z,480.8
2022-10-30T09:47:34.763Z,480.9
2022-10-30T09:48:36.364Z,481.1
2022-10-30T09:49:38.060Z,481.2
2022-10-30T09:50:40.375Z,481.4
2022-10-30T09:51:42.060Z,481.4
2022-10-30T09:52:43.575Z,481.7
2022-10-30T09:53:45.137Z,481.9
2022-10-30T09:54:46.673Z,482.1
2022-10-30T09:55:48.418Z,482.3
2022-10-30T09:56:50.173Z,482.8
2022-10-30T09:57:51.908Z,482.5
2022-10-30T09:58:53.737Z,482.7
2022-10-30T09:59:55.271Z,482.8
2022-10-30T10:01:07.311Z,483.1
2022-10-30T10:02:10.223Z,483
2022-10-30T10:03:11.852Z,483.2
2022-10-30T10:04:13.676Z,483.5
2022-10-30T10:05:15.513Z,483.6
2022-10-30T10:06:17.117Z,483.7
2022-10-30T10:07:18.765Z,483.9
2022-10-30T10:08:20.312Z,484
2022-10-30T10:09:21.983Z,484.4
2022-10-30T10:10:23.945Z,484.4
2022-10-30T10:11:25.591Z,484.5
2022-10-30T10:12:27.308Z,485.1
2022-10-30T10:13:28.979Z,484.8
2022-10-30T10:14:30.541Z,485.4
2022-10-30T10:15:32.080Z,485.3
2022-10-30T10:16:33.726Z,485.6
2022-10-30T10:17:35.368Z,485.6
2022-10-30T10:18:37.182Z,485.5
2022-10-30T10:19:38.848Z,485.9
2022-10-30T10:20:40.696Z,485.9
2022-10-30T10:21:42.268Z,486
2022-10-30T10:22:43.897Z,486.4
2022-10-30T10:23:45.631Z,486.2
2022-10-30T10:24:47.278Z,487
2022-10-30T10:25:48.946Z,487.1
2022-10-30T10:26:50.574Z,487.1
2022-10-30T10:27:52.200Z,487.4
2022-10-30T10:28:53.861Z,487.7
2022-10-30T10:29:55.405Z,487.7
2022-10-30T10:30:57.230Z,487.8
2022-10-30T10:31:58.884Z,488.4
2022-10-30T10:33:02.597Z,488.6
2022-10-30T10:34:04.626Z,488.8
2022-10-30T10:35:06.476Z,488.9
2022-10-30T10:36:08.168Z,488.7
2022-10-30T10:37:09.775Z,488.9
2022-10-30T10:38:11.450Z,489
2022-10-30T10:39:13.179Z,489
2022-10-30T10:40:14.848Z,489
2022-10-30T10:41:16.485Z,489.1
2022-10-30T10:42:18.217Z,489
2022-10-30T10:43:19.858Z,489.4
2022-10-30T10:44:21.605Z,489.4
2022-10-30T10:45:23.367Z,489.3
2022-10-30T10:46:25.015Z,489.4
2022-10-30T10:47:26.616Z,489.5
2022-10-30T10:48:28.473Z,489.9
2022-10-30T10:49:29.997Z,489.8
2022-10-30T10:50:31.623Z,489.8
2022-10-30T10:51:33.222Z,489.9
2022-10-30T10:52:34.773Z,489.9
2022-10-30T10:53:36.376Z,490.1
2022-10-30T10:54:37.984Z,490.2
2022-10-30T10:55:39.711Z,490.3
2022-10-30T10:56:41.338Z,490.7
2022-10-30T10:57:43.102Z,490.6
2022-10-30T10:58:44.863Z,490.4
2022-10-30T10:59:46.435Z,490.5
2022-10-30T11:00:48.049Z,490.5
2022-10-30T11:01:50.358Z,490.6
2022-10-30T11:02:52.160Z,491.2
2022-10-30T11:03:53.716Z,491
2022-10-30T11:04:55.313Z,491.4
2022-10-30T11:05:56.910Z,490.6
2022-10-30T11:06:58.806Z,491
2022-10-30T11:08:02.496Z,491.4
2022-10-30T11:09:04.348Z,491.5
2022-10-30T11:10:05.994Z,491.8
2022-10-30T11:11:07.740Z,491.7
2022-10-30T11:12:09.592Z,492.2
2022-10-30T11:13:11.367Z,492
2022-10-30T11:14:13.019Z,492.3
2022-10-30T11:15:14.749Z,492.5
2022-10-30T11:16:16.297Z,492.8
2022-10-30T11:17:17.941Z,492.9
2022-10-30T11:18:19.499Z,492.9
2022-10-30T11:19:21.143Z,493.1
2022-10-30T11:20:22.790Z,493.3
2022-10-30T11:21:24.404Z,493.6
2022-10-30T11:22:26.047Z,493.9
2022-10-30T11:23:27.684Z,493.8
2022-10-30T11:24:29.516Z,493.9
2022-10-30T11:25:32.104Z,494.1
2022-10-30T11:26:33.807Z,494.3
2022-10-30T11:27:35.472Z,494
2022-10-30T11:28:37.175Z,494.2
2022-10-30T11:29:38.940Z,494.4
2022-10-30T11:30:40.655Z,494.4
2022-10-30T11:31:42.486Z,494.5
2022-10-30T11:33:45.649Z,495.2
2022-10-30T11:34:47.235Z,495
2022-10-30T11:35:48.809Z,495.2
2022-10-30T11:36:50.509Z,495.6
2022-10-30T11:37:52.153Z,495.3
2022-10-30T11:38:53.700Z,495.6
2022-10-30T11:39:55.546Z,495.4
2022-10-30T11:40:57.123Z,496
2022-10-30T11:41:58.773Z,495.9
2022-10-30T11:43:02.571Z,496.2
2022-10-30T11:44:04.619Z,496.3
2022-10-30T11:45:06.453Z,496.1
2022-10-30T11:46:08.206Z,496.6
2022-10-30T11:47:09.848Z,496.6
2022-10-30T11:48:19.105Z,496.2
2022-10-30T11:49:20.845Z,496.8
2022-10-30T11:50:22.755Z,496.7
2022-10-30T11:51:24.954Z,496.9
2022-10-30T11:52:26.820Z,497
2022-10-30T11:53:28.360Z,497.4
2022-10-30T11:54:29.988Z,497.4
2022-10-30T11:55:31.525Z,497.6
2022-10-30T11:56:33.288Z,497.7
2022-10-30T11:57:34.998Z,497.7
2022-10-30T11:58:36.614Z,497.8
2022-10-30T11:59:38.402Z,497.6
2022-10-30T12:00:40.123Z,497.8
2022-10-30T12:01:42.304Z,498.2
2022-10-30T12:02:44.141Z,498
2022-10-30T12:03:45.998Z,497.9
2022-10-30T12:04:47.615Z,498.3
2022-10-30T12:05:50.837Z,498.2
2022-10-30T12:06:52.571Z,498.1
2022-10-30T12:07:54.166Z,498.2
2022-10-30T12:08:55.878Z,498.2
2022-10-30T12:09:57.521Z,498.4
2022-10-30T12:10:59.047Z,498.6
2022-10-30T12:12:07.174Z,498.7
2022-10-30T12:13:08.754Z,498.6
2022-10-30T12:14:10.538Z,498.8
2022-10-30T12:15:12.295Z,498.8
2022-10-30T12:16:14.135Z,498.8
2022-10-30T12:17:15.783Z,498.9
2022-10-30T12:18:17.772Z,498.8
2022-10-30T12:19:19.482Z,499
2022-10-30T12:20:21.155Z,499.1
2022-10-30T12:21:22.883Z,499
2022-10-30T12:22:24.706Z,499
2022-10-30T12:23:26.406Z,499.2
2022-10-30T12:24:28.081Z,499.3
2022-10-30T12:25:29.622Z,499.1
2022-10-30T12:26:31.427Z,499.5
2022-10-30T12:27:33.074Z,499.5
2022-10-30T12:28:34.726Z,499.2
2022-10-30T12:30:10.600Z,499.4
2022-10-30T12:31:12.399Z,499.7
2022-10-30T12:32:14.225Z,499.9
2022-10-30T12:33:15.994Z,500.4
2022-10-30T12:34:17.629Z,500.2
2022-10-30T12:35:19.251Z,500.1
2022-10-30T12:36:21.036Z,500.4
2022-10-30T12:37:22.653Z,500.6
2022-10-30T12:38:24.276Z,500.5
2022-10-30T12:39:25.888Z,501
2022-10-30T12:40:27.592Z,500.8
2022-10-30T12:41:29.268Z,501
2022-10-30T12:42:31.097Z,500.7
2022-10-30T12:43:32.777Z,500.5
2022-10-30T12:44:34.480Z,501.1
2022-10-30T12:45:36.060Z,501.2
2022-10-30T12:46:38.000Z,501.2
2022-10-30T12:47:39.654Z,501.3
2022-10-30T12:48:41.397Z,501.2
2022-10-30T12:49:43.132Z,501.1
2022-10-30T12:50:44.696Z,501.2
2022-10-30T12:51:46.443Z,501.2
2022-10-30T12:52:48.129Z,501.2
2022-10-30T12:53:49.733Z,501.1
2022-10-30T12:54:51.271Z,501
2022-10-30T12:55:52.812Z,501.3
2022-10-30T12:56:54.458Z,501.2
2022-10-30T12:57:55.997Z,501.4
2022-10-30T12:58:57.656Z,501.5
2022-10-30T12:59:59.294Z,501.5
2022-10-30T13:01:01.371Z,501.6
2022-10-30T13:02:03.818Z,501.6
2022-10-30T13:03:05.636Z,501.7
2022-10-30T13:04:07.896Z,501.8
2022-10-30T13:05:09.604Z,502.1
2022-10-30T13:06:11.331Z,502
2022-10-30T13:07:13.049Z,502
2022-10-30T13:08:14.739Z,502.1
2022-10-30T13:09:16.269Z,502
2022-10-30T13:10:17.801Z,502
2022-10-30T13:11:19.419Z,502.5
2022-10-30T13:12:21.067Z,502.8
2022-10-30T13:13:22.730Z,502.9
2022-10-30T13:14:24.279Z,502.6
2022-10-30T13:15:26.053Z,502.4
2022-10-30T13:16:27.853Z,502.3
2022-10-30T13:17:29.507Z,503
2022-10-30T13:18:31.353Z,502.9
2022-10-30T13:19:33.001Z,502.8
2022-10-30T13:20:34.511Z,502.9
2022-10-30T13:21:36.438Z,502.5
2022-10-30T13:22:38.100Z,503.1
2022-10-30T13:23:39.983Z,502.8
2022-10-30T13:24:41.557Z,502.9
2022-10-30T13:25:43.189Z,503
2022-10-30T13:26:44.871Z,503.3
2022-10-30T13:27:46.486Z,503